sensor_id;sensor_type;location;lat;lon;timestamp;pressure;altitude;pressure_sealevel;temperature;humidity
69306;BME280;56427;51.580;4.656;2024-03-08T00:02:20;101782.63;;;3.54;100.00
69306;BME280;56427;51.580;4.656;2024-03-08T00:04:45;101762.09;;;3.51;100.00
69306;BME280;56427;51.580;4.656;2024-03-08T00:07:11;101767.22;;;3.51;100.00
69306;BME280;56427;51.580;4.656;2024-03-08T00:09:36;101774.91;;;3.54;100.00
69306;BME280;56427;51.580;4.656;2024-03-08T00:12:01;101766.41;;;3.47;100.00
69306;BME280;56427;51.580;4.656;2024-03-08T00:14:26;101767.22;;;3.54;100.00
69306;BME280;56427;51.580;4.656;2024-03-08T00:16:52;101765.50;;;3.51;100.00
69306;BME280;56427;51.580;4.656;2024-03-08T00:19:19;101771.53;;;3.44;100.00
69306;BME280;56427;51.580;4.656;2024-03-08T00:21:44;101762.16;;;3.42;100.00
69306;BME280;56427;51.580;4.656;2024-03-08T00:24:10;101757.84;;;3.39;100.00
69306;BME280;56427;51.580;4.656;2024-03-08T00:26:35;101759.56;;;3.42;100.00
69306;BME280;56427;51.580;4.656;2024-03-08T00:29:00;101763.03;;;3.30;100.00
69306;BME280;56427;51.580;4.656;2024-03-08T00:31:26;101757.88;;;3.41;100.00
69306;BME280;56427;51.580;4.656;2024-03-08T00:33:51;101757.88;;;3.38;100.00
69306;BME280;56427;51.580;4.656;2024-03-08T00:36:17;101757.91;;;3.32;100.00
69306;BME280;56427;51.580;4.656;2024-03-08T00:38:42;101755.34;;;3.35;100.00
69306;BME280;56427;51.580;4.656;2024-03-08T00:41:08;101760.44;;;3.42;100.00
69306;BME280;56427;51.580;4.656;2024-03-08T00:43:33;101761.31;;;3.31;100.00
69306;BME280;56427;51.580;4.656;2024-03-08T00:45:59;101762.19;;;3.34;100.00
69306;BME280;56427;51.580;4.656;2024-03-08T00:48:24;101762.19;;;3.34;100.00
69306;BME280;56427;51.580;4.656;2024-03-08T00:50:49;101762.19;;;3.30;100.00
69306;BME280;56427;51.580;4.656;2024-03-08T00:53:15;101752.75;;;3.41;100.00
69306;BME280;56427;51.580;4.656;2024-03-08T00:55:40;101749.34;;;3.27;100.00
69306;BME280;56427;51.580;4.656;2024-03-08T00:58:05;101756.25;;;3.15;100.00
69306;BME280;56427;51.580;4.656;2024-03-08T01:00:31;101752.81;;;3.13;100.00
69306;BME280;56427;51.580;4.656;2024-03-08T01:02:56;101745.19;;;2.93;100.00
69306;BME280;56427;51.580;4.656;2024-03-08T01:05:22;101739.22;;;2.93;100.00
69306;BME280;56427;51.580;4.656;2024-03-08T01:07:49;101735.75;;;3.09;100.00
69306;BME280;56427;51.580;4.656;2024-03-08T01:10:15;101721.19;;;3.17;100.00
69306;BME280;56427;51.580;4.656;2024-03-08T01:12:40;101718.63;;;3.17;100.00
69306;BME280;56427;51.580;4.656;2024-03-08T01:15:09;101713.56;;;3.04;100.00
69306;BME280;56427;51.580;4.656;2024-03-08T01:17:34;101720.44;;;2.95;100.00
69306;BME280;56427;51.580;4.656;2024-03-08T01:19:59;101715.28;;;2.94;100.00
69306;BME280;56427;51.580;4.656;2024-03-08T01:22:25;101711.00;;;2.94;100.00
69306;BME280;56427;51.580;4.656;2024-03-08T01:24:50;101706.72;;;2.95;100.00
69306;BME280;56427;51.580;4.656;2024-03-08T01:27:15;101711.88;;;2.87;100.00
69306;BME280;56427;51.580;4.656;2024-03-08T01:29:41;101706.78;;;2.86;100.00
69306;BME280;56427;51.580;4.656;2024-03-08T01:32:06;101696.50;;;2.83;100.00
69306;BME280;56427;51.580;4.656;2024-03-08T01:34:31;101699.06;;;2.83;100.00
69306;BME280;56427;51.580;4.656;2024-03-08T01:36:58;101699.97;;;2.74;100.00
69306;BME280;56427;51.580;4.656;2024-03-08T01:39:24;101705.94;;;2.70;100.00
69306;BME280;56427;51.580;4.656;2024-03-08T01:41:49;101703.34;;;2.81;100.00
69306;BME280;56427;51.580;4.656;2024-03-08T01:44:14;101696.53;;;2.74;100.00
69306;BME280;56427;51.580;4.656;2024-03-08T01:46:44;101690.56;;;2.75;100.00
69306;BME280;56427;51.580;4.656;2024-03-08T01:49:10;101677.75;;;2.79;100.00
69306;BME280;56427;51.580;4.656;2024-03-08T01:51:36;101689.69;;;2.80;100.00
69306;BME280;56427;51.580;4.656;2024-03-08T01:54:02;101684.59;;;2.73;100.00
69306;BME280;56427;51.580;4.656;2024-03-08T01:56:29;101678.63;;;2.63;100.00
69306;BME280;56427;51.580;4.656;2024-03-08T01:58:57;101672.66;;;2.56;100.00
69306;BME280;56427;51.580;4.656;2024-03-08T02:01:23;101672.66;;;2.61;100.00
69306;BME280;56427;51.580;4.656;2024-03-08T02:03:49;101665.00;;;2.58;100.00
69306;BME280;56427;51.580;4.656;2024-03-08T02:06:15;101663.28;;;2.51;100.00
69306;BME280;56427;51.580;4.656;2024-03-08T02:08:45;101664.16;;;2.48;100.00
69306;BME280;56427;51.580;4.656;2024-03-08T02:11:11;101660.75;;;2.41;100.00
69306;BME280;56427;51.580;4.656;2024-03-08T02:13:36;101655.63;;;2.37;100.00
69306;BME280;56427;51.580;4.656;2024-03-08T02:16:02;101651.38;;;2.39;100.00
69306;BME280;56427;51.580;4.656;2024-03-08T02:18:29;101647.09;;;2.38;100.00
69306;BME280;56427;51.580;4.656;2024-03-08T02:21:13;101650.50;;;2.43;100.00
69306;BME280;56427;51.580;4.656;2024-03-08T02:23:43;101651.38;;;2.36;100.00
69306;BME280;56427;51.580;4.656;2024-03-08T02:26:08;101650.53;;;2.28;100.00
69306;BME280;56427;51.580;4.656;2024-03-08T02:28:33;101649.69;;;2.21;100.00
69306;BME280;56427;51.580;4.656;2024-03-08T02:30:59;101640.28;;;2.25;100.00
69306;BME280;56427;51.580;4.656;2024-03-08T02:33:26;101639.44;;;2.21;100.00
69306;BME280;56427;51.580;4.656;2024-03-08T02:35:52;101632.63;;;2.15;100.00
69306;BME280;56427;51.580;4.656;2024-03-08T02:38:19;101633.47;;;2.17;100.00
69306;BME280;56427;51.580;4.656;2024-03-08T02:40:50;101626.63;;;2.18;100.00
69306;BME280;56427;51.580;4.656;2024-03-08T02:43:17;101628.38;;;2.14;100.00
69306;BME280;56427;51.580;4.656;2024-03-08T02:45:43;101623.22;;;2.11;100.00
69306;BME280;56427;51.580;4.656;2024-03-08T02:48:09;101613.00;;;2.05;100.00
69306;BME280;56427;51.580;4.656;2024-03-08T02:50:35;101608.72;;;2.07;100.00
69306;BME280;56427;51.580;4.656;2024-03-08T02:53:01;101605.34;;;2.08;100.00
69306;BME280;56427;51.580;4.656;2024-03-08T02:55:27;101602.78;;;2.08;100.00
69306;BME280;56427;51.580;4.656;2024-03-08T02:57:53;101599.34;;;2.05;100.00
69306;BME280;56427;51.580;4.656;2024-03-08T03:00:20;101598.50;;;1.92;100.00
69306;BME280;56427;51.580;4.656;2024-03-08T03:02:46;101594.22;;;2.05;100.00
69306;BME280;56427;51.580;4.656;2024-03-08T03:05:12;101593.38;;;2.07;100.00
69306;BME280;56427;51.580;4.656;2024-03-08T03:07:38;101587.41;;;1.99;100.00
69306;BME280;56427;51.580;4.656;2024-03-08T03:10:04;101584.84;;;2.05;100.00
69306;BME280;56427;51.580;4.656;2024-03-08T03:12:30;101589.13;;;1.97;100.00
69306;BME280;56427;51.580;4.656;2024-03-08T03:14:56;101587.41;;;2.01;100.00
69306;BME280;56427;51.580;4.656;2024-03-08T03:17:25;101580.59;;;2.03;100.00
69306;BME280;56427;51.580;4.656;2024-03-08T03:19:53;101579.72;;;1.95;100.00
69306;BME280;56427;51.580;4.656;2024-03-08T03:22:19;101576.31;;;1.88;100.00
69306;BME280;56427;51.580;4.656;2024-03-08T03:24:45;101573.75;;;2.00;100.00
69306;BME280;56427;51.580;4.656;2024-03-08T03:27:12;101581.47;;;1.96;100.00
69306;BME280;56427;51.580;4.656;2024-03-08T03:29:41;101572.09;;;1.96;100.00
69306;BME280;56427;51.580;4.656;2024-03-08T03:32:09;101578.91;;;2.08;100.00
69306;BME280;56427;51.580;4.656;2024-03-08T03:34:34;101569.50;;;1.95;100.00
69306;BME280;56427;51.580;4.656;2024-03-08T03:37:03;101568.66;;;1.99;100.00
69306;BME280;56427;51.580;4.656;2024-03-08T03:39:29;101566.97;;;1.96;100.00
69306;BME280;56427;51.580;4.656;2024-03-08T03:41:57;101566.97;;;2.02;100.00
69306;BME280;56427;51.580;4.656;2024-03-08T03:44:23;101559.28;;;2.08;100.00
69306;BME280;56427;51.580;4.656;2024-03-08T03:46:51;101559.25;;;2.13;100.00
69306;BME280;56427;51.580;4.656;2024-03-08T03:49:17;101549.84;;;2.13;100.00
69306;BME280;56427;51.580;4.656;2024-03-08T03:51:42;101553.28;;;2.12;100.00
69306;BME280;56427;51.580;4.656;2024-03-08T03:54:09;101549.03;;;2.14;100.00
69306;BME280;56427;51.580;4.656;2024-03-08T03:56:35;101548.16;;;2.12;100.00
69306;BME280;56427;51.580;4.656;2024-03-08T03:59:00;101542.19;;;2.21;100.00
69306;BME280;56427;51.580;4.656;2024-03-08T04:01:25;101544.75;;;2.16;100.00
69306;BME280;56427;51.580;4.656;2024-03-08T04:03:50;101544.75;;;2.10;100.00
69306;BME280;56427;51.580;4.656;2024-03-08T04:06:16;101538.78;;;2.07;100.00
69306;BME280;56427;51.580;4.656;2024-03-08T04:08:41;101536.25;;;2.08;100.00
69306;BME280;56427;51.580;4.656;2024-03-08T04:11:07;101540.53;;;2.02;100.00
69306;BME280;56427;51.580;4.656;2024-03-08T04:13:34;101540.50;;;2.05;100.00
69306;BME280;56427;51.580;4.656;2024-03-08T04:15:59;101535.41;;;2.03;100.00
69306;BME280;56427;51.580;4.656;2024-03-08T04:18:25;101533.66;;;2.21;100.00
69306;BME280;56427;51.580;4.656;2024-03-08T04:20:50;101529.38;;;2.23;100.00
69306;BME280;56427;51.580;4.656;2024-03-08T04:23:15;101525.09;;;2.25;100.00
69306;BME280;56427;51.580;4.656;2024-03-08T04:25:43;101529.41;;;2.10;100.00
69306;BME280;56427;51.580;4.656;2024-03-08T04:28:08;101520.88;;;2.10;100.00
69306;BME280;56427;51.580;4.656;2024-03-08T04:30:37;101514.94;;;2.03;100.00
69306;BME280;56427;51.580;4.656;2024-03-08T04:33:03;101519.19;;;2.04;100.00
69306;BME280;56427;51.580;4.656;2024-03-08T04:35:28;101520.06;;;2.02;100.00
69306;BME280;56427;51.580;4.656;2024-03-08T04:37:54;101516.63;;;2.10;100.00
69306;BME280;56427;51.580;4.656;2024-03-08T04:40:19;101518.34;;;2.08;100.00
69306;BME280;56427;51.580;4.656;2024-03-08T04:42:44;101514.06;;;2.10;100.00
69306;BME280;56427;51.580;4.656;2024-03-08T04:45:10;101516.66;;;1.95;100.00
69306;BME280;56427;51.580;4.656;2024-03-08T04:47:39;101502.13;;;2.08;100.00
69306;BME280;56427;51.580;4.656;2024-03-08T04:50:04;101510.66;;;2.05;100.00
69306;BME280;56427;51.580;4.656;2024-03-08T04:52:30;101492.75;;;1.99;100.00
69306;BME280;56427;51.580;4.656;2024-03-08T04:54:55;101496.16;;;1.94;100.00
69306;BME280;56427;51.580;4.656;2024-03-08T04:57:20;101491.94;;;1.91;100.00
69306;BME280;56427;51.580;4.656;2024-03-08T04:59:46;101489.38;;;1.91;100.00
69306;BME280;56427;51.580;4.656;2024-03-08T05:02:11;101493.63;;;1.87;100.00
69306;BME280;56427;51.580;4.656;2024-03-08T05:04:36;101492.75;;;1.93;100.00
69306;BME280;56427;51.580;4.656;2024-03-08T05:07:02;101491.91;;;1.97;100.00
69306;BME280;56427;51.580;4.656;2024-03-08T05:09:27;101488.50;;;1.92;100.00
69306;BME280;56427;51.580;4.656;2024-03-08T05:11:56;101487.66;;;1.85;100.00
69306;BME280;56427;51.580;4.656;2024-03-08T05:14:23;101490.22;;;1.87;100.00
69306;BME280;56427;51.580;4.656;2024-03-08T05:16:50;101484.28;;;1.83;100.00
69306;BME280;56427;51.580;4.656;2024-03-08T05:19:19;101481.69;;;1.86;100.00
69306;BME280;56427;51.580;4.656;2024-03-08T05:21:46;101475.75;;;1.78;100.00
69306;BME280;56427;51.580;4.656;2024-03-08T05:24:11;101487.69;;;1.72;100.00
69306;BME280;56427;51.580;4.656;2024-03-08T05:26:38;101485.09;;;1.81;100.00
69306;BME280;56427;51.580;4.656;2024-03-08T05:29:03;101477.44;;;1.87;100.00
69306;BME280;56427;51.580;4.656;2024-03-08T05:31:31;101476.56;;;1.82;100.00
69306;BME280;56427;51.580;4.656;2024-03-08T05:34:01;101473.19;;;1.77;100.00
69306;BME280;56427;51.580;4.656;2024-03-08T05:36:26;101478.31;;;1.74;100.00
69306;BME280;56427;51.580;4.656;2024-03-08T05:38:51;101477.47;;;1.73;100.00
69306;BME280;56427;51.580;4.656;2024-03-08T05:41:17;101470.63;;;1.75;100.00
69306;BME280;56427;51.580;4.656;2024-03-08T05:43:43;101467.25;;;1.67;100.00
69306;BME280;56427;51.580;4.656;2024-03-08T05:46:09;101468.09;;;1.65;100.00
69306;BME280;56427;51.580;4.656;2024-03-08T05:48:35;101468.09;;;1.77;100.00
69306;BME280;56427;51.580;4.656;2024-03-08T05:51:01;101460.41;;;1.74;100.00
69306;BME280;56427;51.580;4.656;2024-03-08T05:53:27;101461.28;;;1.64;100.00
69306;BME280;56427;51.580;4.656;2024-03-08T05:55:52;101465.53;;;1.61;100.00
69306;BME280;56427;51.580;4.656;2024-03-08T05:58:17;101457.88;;;1.60;100.00
69306;BME280;56427;51.580;4.656;2024-03-08T06:00:43;101460.41;;;1.61;100.00
69306;BME280;56427;51.580;4.656;2024-03-08T06:03:09;101464.69;;;1.61;100.00
69306;BME280;56427;51.580;4.656;2024-03-08T06:05:34;101451.06;;;1.54;100.00
69306;BME280;56427;51.580;4.656;2024-03-08T06:07:59;101457.00;;;1.56;100.00
69306;BME280;56427;51.580;4.656;2024-03-08T06:10:25;101444.22;;;1.62;100.00
69306;BME280;56427;51.580;4.656;2024-03-08T06:12:50;101445.97;;;1.57;100.00
69306;BME280;56427;51.580;4.656;2024-03-08T06:15:16;101448.50;;;1.54;100.00
69306;BME280;56427;51.580;4.656;2024-03-08T06:17:42;101446.81;;;1.58;100.00
69306;BME280;56427;51.580;4.656;2024-03-08T06:20:07;101449.34;;;1.56;100.00
69306;BME280;56427;51.580;4.656;2024-03-08T06:22:37;101436.59;;;1.52;100.00
69306;BME280;56427;51.580;4.656;2024-03-08T06:25:10;101437.44;;;1.52;100.00
69306;BME280;56427;51.580;4.656;2024-03-08T06:27:39;101438.28;;;1.64;100.00
69306;BME280;56427;51.580;4.656;2024-03-08T06:30:05;101429.72;;;1.69;100.00
69306;BME280;56427;51.580;4.656;2024-03-08T06:32:31;101430.56;;;1.68;100.00
69306;BME280;56427;51.580;4.656;2024-03-08T06:35:00;101428.00;;;1.70;100.00
69306;BME280;56427;51.580;4.656;2024-03-08T06:37:26;101430.56;;;1.76;100.00
69306;BME280;56427;51.580;4.656;2024-03-08T06:39:51;101429.72;;;1.83;100.00
69306;BME280;56427;51.580;4.656;2024-03-08T06:42:17;101423.69;;;1.93;100.00
69306;BME280;56427;51.580;4.656;2024-03-08T06:44:42;101432.19;;;2.06;100.00
69306;BME280;56427;51.580;4.656;2024-03-08T06:47:14;101419.31;;;2.20;100.00
69306;BME280;56427;51.580;4.656;2024-03-08T06:49:40;101414.25;;;2.15;100.00
69306;BME280;56427;51.580;4.656;2024-03-08T06:52:06;101416.78;;;2.13;100.00
69306;BME280;56427;51.580;4.656;2024-03-08T06:54:34;101420.22;;;2.12;100.00
69306;BME280;56427;51.580;4.656;2024-03-08T06:57:01;101422.75;;;2.20;100.00
69306;BME280;56427;51.580;4.656;2024-03-08T06:59:29;101415.88;;;2.33;98.75
69306;BME280;56427;51.580;4.656;2024-03-08T07:01:54;101415.84;;;2.34;99.17
69306;BME280;56427;51.580;4.656;2024-03-08T07:04:19;101413.06;;;2.74;97.84
69306;BME280;56427;51.580;4.656;2024-03-08T07:06:47;101407.75;;;2.98;94.83
69306;BME280;56427;51.580;4.656;2024-03-08T07:09:15;101410.00;;;3.40;93.06
69306;BME280;56427;51.580;4.656;2024-03-08T07:11:42;101404.00;;;3.41;91.23
69306;BME280;56427;51.580;4.656;2024-03-08T07:14:07;101402.00;;;3.67;90.30
69306;BME280;56427;51.580;4.656;2024-03-08T07:16:34;101398.38;;;3.87;89.97
69306;BME280;56427;51.580;4.656;2024-03-08T07:19:03;101400.59;;;4.14;87.43
69306;BME280;56427;51.580;4.656;2024-03-08T07:21:28;101403.56;;;3.81;88.18
69306;BME280;56427;51.580;4.656;2024-03-08T07:23:54;101415.59;;;3.75;88.08
69306;BME280;56427;51.580;4.656;2024-03-08T07:26:25;101403.94;;;3.47;89.87
69306;BME280;56427;51.580;4.656;2024-03-08T07:28:50;101401.03;;;3.79;88.74
69306;BME280;56427;51.580;4.656;2024-03-08T07:31:16;101407.38;;;3.46;89.62
69306;BME280;56427;51.580;4.656;2024-03-08T07:33:50;101395.19;;;3.65;89.95
69306;BME280;56427;51.580;4.656;2024-03-08T07:36:15;101396.91;;;4.35;86.88
69306;BME280;56427;51.580;4.656;2024-03-08T07:38:41;101389.91;;;4.46;84.32
69306;BME280;56427;51.580;4.656;2024-03-08T07:41:06;101391.84;;;4.29;84.45
69306;BME280;56427;51.580;4.656;2024-03-08T07:43:31;101382.22;;;4.45;83.87
69306;BME280;56427;51.580;4.656;2024-03-08T07:45:58;101381.47;;;4.94;82.42
69306;BME280;56427;51.580;4.656;2024-03-08T07:48:23;101384.19;;;4.86;79.69
69306;BME280;56427;51.580;4.656;2024-03-08T07:50:48;101386.00;;;4.79;80.46
69306;BME280;56427;51.580;4.656;2024-03-08T07:53:15;101380.97;;;4.70;81.01
69306;BME280;56427;51.580;4.656;2024-03-08T07:55:40;101386.03;;;4.78;79.17
69306;BME280;56427;51.580;4.656;2024-03-08T07:58:07;101374.50;;;5.50;76.62
69306;BME280;56427;51.580;4.656;2024-03-08T08:00:35;101369.47;;;5.44;76.22
69306;BME280;56427;51.580;4.656;2024-03-08T08:03:02;101370.69;;;5.24;77.26
69306;BME280;56427;51.580;4.656;2024-03-08T08:05:27;101367.88;;;5.81;74.28
69306;BME280;56427;51.580;4.656;2024-03-08T08:07:53;101358.44;;;5.37;75.53
69306;BME280;56427;51.580;4.656;2024-03-08T08:10:18;101358.38;;;5.40;75.25
69306;BME280;56427;51.580;4.656;2024-03-08T08:12:46;101349.81;;;5.39;74.65
69306;BME280;56427;51.580;4.656;2024-03-08T08:15:12;101349.44;;;5.59;73.77
69306;BME280;56427;51.580;4.656;2024-03-08T08:17:38;101347.78;;;5.57;73.94
69306;BME280;56427;51.580;4.656;2024-03-08T08:20:04;101359.38;;;5.79;72.35
69306;BME280;56427;51.580;4.656;2024-03-08T08:22:31;101356.31;;;6.02;72.79
69306;BME280;56427;51.580;4.656;2024-03-08T08:24:56;101349.50;;;6.01;72.89
69306;BME280;56427;51.580;4.656;2024-03-08T08:27:21;101348.09;;;5.83;72.22
69306;BME280;56427;51.580;4.656;2024-03-08T08:29:47;101346.38;;;5.84;72.87
69306;BME280;56427;51.580;4.656;2024-03-08T08:32:13;101338.66;;;5.84;72.75
69306;BME280;56427;51.580;4.656;2024-03-08T08:34:38;101336.84;;;5.89;73.22
69306;BME280;56427;51.580;4.656;2024-03-08T08:37:03;101337.72;;;6.30;70.96
69306;BME280;56427;51.580;4.656;2024-03-08T08:39:28;101339.81;;;6.12;70.10
69306;BME280;56427;51.580;4.656;2024-03-08T08:41:54;101336.19;;;5.79;71.98
69306;BME280;56427;51.580;4.656;2024-03-08T08:44:19;101338.94;;;6.51;68.64
69306;BME280;56427;51.580;4.656;2024-03-08T08:46:44;101333.88;;;6.47;69.33
69306;BME280;56427;51.580;4.656;2024-03-08T08:49:10;101332.31;;;6.76;69.44
69306;BME280;56427;51.580;4.656;2024-03-08T08:51:40;101328.34;;;6.63;68.98
69306;BME280;56427;51.580;4.656;2024-03-08T08:54:05;101317.06;;;6.68;69.43
69306;BME280;56427;51.580;4.656;2024-03-08T08:56:31;101321.16;;;6.40;68.45
69306;BME280;56427;51.580;4.656;2024-03-08T08:58:56;101311.72;;;7.09;67.06
69306;BME280;56427;51.580;4.656;2024-03-08T09:01:23;101321.38;;;6.68;68.96
69306;BME280;56427;51.580;4.656;2024-03-08T09:03:48;101310.47;;;6.57;68.45
69306;BME280;56427;51.580;4.656;2024-03-08T09:06:15;101318.50;;;6.80;68.51
69306;BME280;56427;51.580;4.656;2024-03-08T09:08:41;101297.09;;;7.42;67.11
69306;BME280;56427;51.580;4.656;2024-03-08T09:11:07;101291.84;;;7.45;66.46
69306;BME280;56427;51.580;4.656;2024-03-08T09:13:32;101283.34;;;7.71;65.52
69306;BME280;56427;51.580;4.656;2024-03-08T09:15:59;101285.03;;;7.11;67.47
69306;BME280;56427;51.580;4.656;2024-03-08T09:18:24;101281.28;;;7.52;65.65
69306;BME280;56427;51.580;4.656;2024-03-08T09:20:50;101279.59;;;7.51;65.62
69306;BME280;56427;51.580;4.656;2024-03-08T09:23:16;101274.38;;;7.53;63.82
69306;BME280;56427;51.580;4.656;2024-03-08T09:25:44;101265.00;;;7.80;62.63
69306;BME280;56427;51.580;4.656;2024-03-08T09:28:10;101266.69;;;8.09;64.33
69306;BME280;56427;51.580;4.656;2024-03-08T09:30:37;101262.13;;;8.45;62.24
69306;BME280;56427;51.580;4.656;2024-03-08T09:33:03;101249.28;;;8.42;62.58
69306;BME280;56427;51.580;4.656;2024-03-08T09:35:29;101241.41;;;8.72;62.09
69306;BME280;56427;51.580;4.656;2024-03-08T09:37:55;101239.09;;;8.64;62.86
69306;BME280;56427;51.580;4.656;2024-03-08T09:40:21;101233.59;;;8.48;62.66
69306;BME280;56427;51.580;4.656;2024-03-08T09:42:48;101221.25;;;8.56;60.95
69306;BME280;56427;51.580;4.656;2024-03-08T09:45:14;101237.44;;;8.36;61.16
69306;BME280;56427;51.580;4.656;2024-03-08T09:47:43;101206.38;;;8.88;60.46
69306;BME280;56427;51.580;4.656;2024-03-08T09:50:09;101211.22;;;8.72;59.90
69306;BME280;56427;51.580;4.656;2024-03-08T09:52:47;101204.28;;;8.98;59.20
69306;BME280;56427;51.580;4.656;2024-03-08T09:55:13;101202.25;;;8.57;59.30
69306;BME280;56427;51.580;4.656;2024-03-08T09:57:40;101190.03;;;8.09;62.31
69306;BME280;56427;51.580;4.656;2024-03-08T10:00:06;101187.22;;;8.44;59.61
69306;BME280;56427;51.580;4.656;2024-03-08T10:02:46;101188.69;;;8.51;60.93
69306;BME280;56427;51.580;4.656;2024-03-08T10:05:12;101179.63;;;8.64;59.04
69306;BME280;56427;51.580;4.656;2024-03-08T10:07:39;101172.50;;;8.71;59.20
69306;BME280;56427;51.580;4.656;2024-03-08T10:10:04;101153.50;;;8.20;60.32
69306;BME280;56427;51.580;4.656;2024-03-08T10:12:30;101158.66;;;8.47;59.81
69306;BME280;56427;51.580;4.656;2024-03-08T10:14:58;101155.13;;;8.98;57.89
69306;BME280;56427;51.580;4.656;2024-03-08T10:17:23;101148.59;;;9.34;58.97
69306;BME280;56427;51.580;4.656;2024-03-08T10:19:50;101160.16;;;9.02;59.01
69306;BME280;56427;51.580;4.656;2024-03-08T10:22:16;101144.16;;;9.14;59.78
69306;BME280;56427;51.580;4.656;2024-03-08T10:24:45;101140.06;;;8.62;58.66
69306;BME280;56427;51.580;4.656;2024-03-08T10:27:10;101130.34;;;8.67;57.91
69306;BME280;56427;51.580;4.656;2024-03-08T10:29:36;101137.97;;;8.72;58.42
69306;BME280;56427;51.580;4.656;2024-03-08T10:32:03;101125.81;;;8.50;58.58
69306;BME280;56427;51.580;4.656;2024-03-08T10:34:30;101120.84;;;8.93;56.41
69306;BME280;56427;51.580;4.656;2024-03-08T10:36:59;101139.06;;;9.13;57.48
69306;BME280;56427;51.580;4.656;2024-03-08T10:39:28;101114.88;;;9.36;56.97
69306;BME280;56427;51.580;4.656;2024-03-08T10:41:57;101116.78;;;8.85;56.76
69306;BME280;56427;51.580;4.656;2024-03-08T10:47:17;101109.75;;;9.34;56.28
69306;BME280;56427;51.580;4.656;2024-03-08T10:50:04;101111.22;;;8.96;56.43
69306;BME280;56427;51.580;4.656;2024-03-08T10:52:33;101090.97;;;8.84;56.59
69306;BME280;56427;51.580;4.656;2024-03-08T10:55:01;101099.84;;;8.77;56.94
69306;BME280;56427;51.580;4.656;2024-03-08T10:57:27;101091.63;;;9.12;57.16
69306;BME280;56427;51.580;4.656;2024-03-08T10:59:52;101092.59;;;9.32;57.78
69306;BME280;56427;51.580;4.656;2024-03-08T11:02:19;101085.34;;;8.96;57.22
69306;BME280;56427;51.580;4.656;2024-03-08T11:04:48;101082.59;;;9.01;57.05
69306;BME280;56427;51.580;4.656;2024-03-08T11:07:15;101085.91;;;9.26;57.23
69306;BME280;56427;51.580;4.656;2024-03-08T11:09:43;101068.44;;;9.53;56.70
69306;BME280;56427;51.580;4.656;2024-03-08T11:12:27;101064.56;;;9.43;55.72
69306;BME280;56427;51.580;4.656;2024-03-08T11:15:01;101072.22;;;9.24;56.20
69306;BME280;56427;51.580;4.656;2024-03-08T11:19:58;101072.25;;;9.44;56.62
69306;BME280;56427;51.580;4.656;2024-03-08T11:22:28;101060.63;;;9.33;56.84
69306;BME280;56427;51.580;4.656;2024-03-08T11:25:04;101053.16;;;9.89;56.27
69306;BME280;56427;51.580;4.656;2024-03-08T11:27:35;101065.03;;;9.53;55.86
69306;BME280;56427;51.580;4.656;2024-03-08T11:30:06;101055.31;;;9.58;55.87
69306;BME280;56427;51.580;4.656;2024-03-08T11:32:37;101046.88;;;9.53;55.42
69306;BME280;56427;51.580;4.656;2024-03-08T11:35:06;101039.13;;;9.53;54.72
69306;BME280;56427;51.580;4.656;2024-03-08T11:37:33;101044.56;;;9.67;55.92
69306;BME280;56427;51.580;4.656;2024-03-08T11:40:11;101037.44;;;9.52;54.48
69306;BME280;56427;51.580;4.656;2024-03-08T11:42:39;101035.44;;;9.58;54.91
69306;BME280;56427;51.580;4.656;2024-03-08T11:45:09;101020.81;;;9.98;55.29
69306;BME280;56427;51.580;4.656;2024-03-08T11:47:36;101032.28;;;9.92;54.54
69306;BME280;56427;51.580;4.656;2024-03-08T11:50:06;101013.63;;;9.84;54.49
69306;BME280;56427;51.580;4.656;2024-03-08T11:52:35;101014.22;;;9.91;53.61
69306;BME280;56427;51.580;4.656;2024-03-08T11:55:01;101001.91;;;9.96;53.96
69306;BME280;56427;51.580;4.656;2024-03-08T11:57:26;101005.25;;;10.18;55.53
69306;BME280;56427;51.580;4.656;2024-03-08T11:59:54;100996.38;;;10.24;53.92
69306;BME280;56427;51.580;4.656;2024-03-08T12:02:24;101009.44;;;10.41;54.32
69306;BME280;56427;51.580;4.656;2024-03-08T12:04:56;101000.28;;;10.72;52.98
69306;BME280;56427;51.580;4.656;2024-03-08T12:07:22;100988.22;;;10.33;51.74
69306;BME280;56427;51.580;4.656;2024-03-08T12:10:17;100988.44;;;10.66;53.65
69306;BME280;56427;51.580;4.656;2024-03-08T12:12:47;100989.94;;;11.08;52.20
69306;BME280;56427;51.580;4.656;2024-03-08T12:15:15;100987.97;;;11.13;51.41
69306;BME280;56427;51.580;4.656;2024-03-08T12:17:41;100982.41;;;10.66;52.17
69306;BME280;56427;51.580;4.656;2024-03-08T12:22:46;100977.88;;;11.24;51.38
69306;BME280;56427;51.580;4.656;2024-03-08T12:25:12;100974.78;;;10.99;52.10
69306;BME280;56427;51.580;4.656;2024-03-08T12:27:41;100965.63;;;10.54;50.84
69306;BME280;56427;51.580;4.656;2024-03-08T12:30:26;100951.78;;;10.91;52.24
69306;BME280;56427;51.580;4.656;2024-03-08T12:32:59;100956.47;;;11.02;52.04
69306;BME280;56427;51.580;4.656;2024-03-08T12:35:26;100955.75;;;11.34;51.48
69306;BME280;56427;51.580;4.656;2024-03-08T12:37:53;100955.56;;;11.03;50.20
69306;BME280;56427;51.580;4.656;2024-03-08T12:40:26;100937.84;;;11.11;51.12
69306;BME280;56427;51.580;4.656;2024-03-08T12:42:52;100941.03;;;10.99;50.54
69306;BME280;56427;51.580;4.656;2024-03-08T12:45:17;100940.44;;;11.11;51.05
69306;BME280;56427;51.580;4.656;2024-03-08T12:47:42;100930.66;;;10.82;50.26
69306;BME280;56427;51.580;4.656;2024-03-08T12:50:09;100925.16;;;10.88;51.90
69306;BME280;56427;51.580;4.656;2024-03-08T12:52:35;100920.22;;;11.18;51.44
69306;BME280;56427;51.580;4.656;2024-03-08T12:55:00;100930.84;;;11.13;51.21
69306;BME280;56427;51.580;4.656;2024-03-08T12:57:28;100926.94;;;11.22;50.58
69306;BME280;56427;51.580;4.656;2024-03-08T12:59:54;100923.53;;;10.85;50.47